sensor_id;sensor_type;location;lat;lon;timestamp;P1;durP1;ratioP1;P2;durP2;ratioP2
43823;SDS011;29470;53.550;9.926;2023-04-07T00:03:57;17.05;;;8.73;;
43823;SDS011;29470;53.550;9.926;2023-04-07T00:09:27;14.30;;;9.10;;
43823;SDS011;29470;53.550;9.926;2023-04-07T00:14:35;14.80;;;8.10;;
43823;SDS011;29470;53.550;9.926;2023-04-07T00:19:39;14.90;;;8.90;;
43823;SDS011;29470;53.550;9.926;2023-04-07T00:24:42;17.05;;;9.32;;
43823;SDS011;29470;53.550;9.926;2023-04-07T00:29:45;14.25;;;9.25;;
43823;SDS011;29470;53.550;9.926;2023-04-07T00:34:49;14.70;;;8.75;;
43823;SDS011;29470;53.550;9.926;2023-04-07T00:45:19;12.57;;;8.35;;
43823;SDS011;29470;53.550;9.926;2023-04-07T00:50:26;15.45;;;9.68;;
43823;SDS011;29470;53.550;9.926;2023-04-07T00:55:29;13.37;;;9.13;;
43823;SDS011;29470;53.550;9.926;2023-04-07T01:00:32;13.43;;;9.00;;
43823;SDS011;29470;53.550;9.926;2023-04-07T01:11:16;13.93;;;8.98;;
43823;SDS011;29470;53.550;9.926;2023-04-07T01:16:26;15.85;;;9.27;;
43823;SDS011;29470;53.550;9.926;2023-04-07T01:21:36;13.97;;;8.57;;
43823;SDS011;29470;53.550;9.926;2023-04-07T01:26:41;15.02;;;9.77;;
43823;SDS011;29470;53.550;9.926;2023-04-07T01:31:45;15.82;;;9.73;;
43823;SDS011;29470;53.550;9.926;2023-04-07T01:36:57;15.93;;;9.95;;
43823;SDS011;29470;53.550;9.926;2023-04-07T01:42:02;13.23;;;8.95;;
43823;SDS011;29470;53.550;9.926;2023-04-07T01:47:10;13.82;;;8.82;;
43823;SDS011;29470;53.550;9.926;2023-04-07T01:52:13;13.30;;;9.20;;
43823;SDS011;29470;53.550;9.926;2023-04-07T01:57:35;16.02;;;8.95;;
43823;SDS011;29470;53.550;9.926;2023-04-07T02:02:48;13.95;;;8.90;;
43823;SDS011;29470;53.550;9.926;2023-04-07T02:07:57;12.90;;;7.97;;
43823;SDS011;29470;53.550;9.926;2023-04-07T02:13:14;13.10;;;8.35;;
43823;SDS011;29470;53.550;9.926;2023-04-07T02:18:27;11.88;;;8.35;;
43823;SDS011;29470;53.550;9.926;2023-04-07T02:23:45;10.32;;;7.80;;
43823;SDS011;29470;53.550;9.926;2023-04-07T02:28:48;13.70;;;7.75;;
43823;SDS011;29470;53.550;9.926;2023-04-07T02:33:52;14.02;;;8.32;;
43823;SDS011;29470;53.550;9.926;2023-04-07T02:38:55;12.00;;;7.53;;
43823;SDS011;29470;53.550;9.926;2023-04-07T02:44:13;10.50;;;7.00;;
43823;SDS011;29470;53.550;9.926;2023-04-07T02:49:17;11.23;;;7.40;;
43823;SDS011;29470;53.550;9.926;2023-04-07T02:54:20;12.13;;;7.43;;
43823;SDS011;29470;53.550;9.926;2023-04-07T02:59:24;11.55;;;6.80;;
43823;SDS011;29470;53.550;9.926;2023-04-07T03:04:28;9.75;;;6.82;;
43823;SDS011;29470;53.550;9.926;2023-04-07T03:09:33;12.35;;;7.05;;
43823;SDS011;29470;53.550;9.926;2023-04-07T03:14:36;10.70;;;6.90;;
43823;SDS011;29470;53.550;9.926;2023-04-07T03:19:41;11.88;;;7.47;;
43823;SDS011;29470;53.550;9.926;2023-04-07T03:24:44;11.52;;;6.82;;
43823;SDS011;29470;53.550;9.926;2023-04-07T03:29:47;11.75;;;7.18;;
43823;SDS011;29470;53.550;9.926;2023-04-07T03:34:54;10.80;;;6.47;;
43823;SDS011;29470;53.550;9.926;2023-04-07T03:39:57;13.30;;;7.40;;
43823;SDS011;29470;53.550;9.926;2023-04-07T03:45:05;11.82;;;7.32;;
43823;SDS011;29470;53.550;9.926;2023-04-07T03:50:14;11.60;;;7.40;;
43823;SDS011;29470;53.550;9.926;2023-04-07T03:55:34;10.32;;;6.85;;
43823;SDS011;29470;53.550;9.926;2023-04-07T04:00:46;12.63;;;7.20;;
43823;SDS011;29470;53.550;9.926;2023-04-07T04:05:51;11.45;;;6.97;;
43823;SDS011;29470;53.550;9.926;2023-04-07T04:11:00;12.25;;;6.05;;
43823;SDS011;29470;53.550;9.926;2023-04-07T04:16:09;11.65;;;6.20;;
43823;SDS011;29470;53.550;9.926;2023-04-07T04:21:17;13.88;;;7.03;;
43823;SDS011;29470;53.550;9.926;2023-04-07T04:26:20;10.30;;;5.93;;
43823;SDS011;29470;53.550;9.926;2023-04-07T04:31:30;13.00;;;6.55;;
43823;SDS011;29470;53.550;9.926;2023-04-07T04:36:36;11.02;;;6.40;;
43823;SDS011;29470;53.550;9.926;2023-04-07T04:42:43;10.98;;;6.75;;
43823;SDS011;29470;53.550;9.926;2023-04-07T04:47:47;9.60;;;5.78;;
43823;SDS011;29470;53.550;9.926;2023-04-07T04:52:52;8.82;;;6.38;;
43823;SDS011;29470;53.550;9.926;2023-04-07T04:57:57;12.27;;;6.68;;
43823;SDS011;29470;53.550;9.926;2023-04-07T05:03:10;10.45;;;5.78;;
43823;SDS011;29470;53.550;9.926;2023-04-07T05:08:19;10.77;;;6.90;;
43823;SDS011;29470;53.550;9.926;2023-04-07T05:13:22;10.05;;;6.32;;
43823;SDS011;29470;53.550;9.926;2023-04-07T05:18:27;9.68;;;6.03;;
43823;SDS011;29470;53.550;9.926;2023-04-07T05:23:33;8.52;;;5.35;;
43823;SDS011;29470;53.550;9.926;2023-04-07T05:28:38;11.30;;;5.95;;
43823;SDS011;29470;53.550;9.926;2023-04-07T05:33:48;8.40;;;5.72;;
43823;SDS011;29470;53.550;9.926;2023-04-07T05:38:55;9.55;;;5.70;;
43823;SDS011;29470;53.550;9.926;2023-04-07T05:43:58;10.70;;;5.70;;
43823;SDS011;29470;53.550;9.926;2023-04-07T05:49:02;10.43;;;5.82;;
43823;SDS011;29470;53.550;9.926;2023-04-07T05:54:25;8.98;;;5.80;;
43823;SDS011;29470;53.550;9.926;2023-04-07T05:59:28;9.48;;;5.80;;
43823;SDS011;29470;53.550;9.926;2023-04-07T06:04:31;10.38;;;5.78;;
43823;SDS011;29470;53.550;9.926;2023-04-07T06:09:39;10.32;;;5.72;;
43823;SDS011;29470;53.550;9.926;2023-04-07T06:14:45;9.25;;;5.32;;
43823;SDS011;29470;53.550;9.926;2023-04-07T06:19:48;9.27;;;5.75;;
43823;SDS011;29470;53.550;9.926;2023-04-07T06:24:52;9.05;;;5.43;;
43823;SDS011;29470;53.550;9.926;2023-04-07T06:29:55;9.68;;;5.60;;
43823;SDS011;29470;53.550;9.926;2023-04-07T06:34:58;8.85;;;5.25;;
43823;SDS011;29470;53.550;9.926;2023-04-07T06:40:05;7.40;;;4.90;;
43823;SDS011;29470;53.550;9.926;2023-04-07T06:45:09;7.90;;;5.22;;
43823;SDS011;29470;53.550;9.926;2023-04-07T06:50:12;7.88;;;4.68;;
43823;SDS011;29470;53.550;9.926;2023-04-07T06:55:16;6.57;;;4.80;;
43823;SDS011;29470;53.550;9.926;2023-04-07T07:00:19;7.35;;;5.28;;
43823;SDS011;29470;53.550;9.926;2023-04-07T07:05:23;7.95;;;4.97;;
43823;SDS011;29470;53.550;9.926;2023-04-07T07:10:28;8.93;;;5.18;;
43823;SDS011;29470;53.550;9.926;2023-04-07T07:15:30;8.90;;;5.40;;
43823;SDS011;29470;53.550;9.926;2023-04-07T07:20:33;9.45;;;5.40;;
43823;SDS011;29470;53.550;9.926;2023-04-07T07:25:38;11.20;;;5.22;;
43823;SDS011;29470;53.550;9.926;2023-04-07T07:30:40;7.18;;;5.03;;
43823;SDS011;29470;53.550;9.926;2023-04-07T07:35:43;8.00;;;5.32;;
43823;SDS011;29470;53.550;9.926;2023-04-07T07:40:47;8.02;;;5.28;;
43823;SDS011;29470;53.550;9.926;2023-04-07T07:45:50;8.20;;;5.30;;
43823;SDS011;29470;53.550;9.926;2023-04-07T07:50:53;7.55;;;5.28;;
43823;SDS011;29470;53.550;9.926;2023-04-07T07:55:58;9.48;;;5.95;;
43823;SDS011;29470;53.550;9.926;2023-04-07T08:01:02;9.35;;;5.63;;
43823;SDS011;29470;53.550;9.926;2023-04-07T08:06:05;7.47;;;5.18;;
43823;SDS011;29470;53.550;9.926;2023-04-07T08:11:11;9.73;;;5.50;;
43823;SDS011;29470;53.550;9.926;2023-04-07T08:16:13;9.55;;;5.32;;
43823;SDS011;29470;53.550;9.926;2023-04-07T08:21:16;10.63;;;5.75;;
43823;SDS011;29470;53.550;9.926;2023-04-07T08:26:21;11.10;;;5.63;;
43823;SDS011;29470;53.550;9.926;2023-04-07T08:31:24;9.80;;;5.05;;
43823;SDS011;29470;53.550;9.926;2023-04-07T08:36:27;7.90;;;4.88;;
43823;SDS011;29470;53.550;9.926;2023-04-07T08:41:35;10.65;;;5.18;;
43823;SDS011;29470;53.550;9.926;2023-04-07T08:46:39;7.53;;;4.80;;
43823;SDS011;29470;53.550;9.926;2023-04-07T08:51:43;8.35;;;4.95;;
43823;SDS011;29470;53.550;9.926;2023-04-07T08:56:49;6.78;;;4.57;;
43823;SDS011;29470;53.550;9.926;2023-04-07T09:01:52;9.80;;;5.28;;
43823;SDS011;29470;53.550;9.926;2023-04-07T09:06:56;10.98;;;4.78;;
43823;SDS011;29470;53.550;9.926;2023-04-07T09:12:01;7.93;;;4.95;;
43823;SDS011;29470;53.550;9.926;2023-04-07T09:17:04;7.13;;;4.43;;
43823;SDS011;29470;53.550;9.926;2023-04-07T09:22:07;9.07;;;4.90;;
43823;SDS011;29470;53.550;9.926;2023-04-07T09:27:14;7.22;;;4.68;;
43823;SDS011;29470;53.550;9.926;2023-04-07T09:32:33;8.23;;;4.85;;
43823;SDS011;29470;53.550;9.926;2023-04-07T09:37:39;9.77;;;5.22;;
43823;SDS011;29470;53.550;9.926;2023-04-07T09:42:47;7.78;;;4.82;;
43823;SDS011;29470;53.550;9.926;2023-04-07T09:47:50;9.30;;;4.97;;
43823;SDS011;29470;53.550;9.926;2023-04-07T09:52:53;8.48;;;5.50;;
43823;SDS011;29470;53.550;9.926;2023-04-07T09:57:58;9.57;;;5.25;;
43823;SDS011;29470;53.550;9.926;2023-04-07T10:03:01;7.93;;;5.55;;
43823;SDS011;29470;53.550;9.926;2023-04-07T10:08:05;8.07;;;4.85;;
43823;SDS011;29470;53.550;9.926;2023-04-07T10:13:09;9.00;;;5.13;;
43823;SDS011;29470;53.550;9.926;2023-04-07T10:18:14;9.90;;;5.45;;
43823;SDS011;29470;53.550;9.926;2023-04-07T10:23:19;8.20;;;5.13;;
43823;SDS011;29470;53.550;9.926;2023-04-07T10:28:27;9.05;;;5.63;;
43823;SDS011;29470;53.550;9.926;2023-04-07T10:33:43;6.90;;;5.18;;
43823;SDS011;29470;53.550;9.926;2023-04-07T10:44:45;7.50;;;4.68;;
43823;SDS011;29470;53.550;9.926;2023-04-07T10:55:28;6.97;;;3.97;;
43823;SDS011;29470;53.550;9.926;2023-04-07T11:00:34;7.32;;;4.10;;
43823;SDS011;29470;53.550;9.926;2023-04-07T11:05:37;6.07;;;4.15;;
43823;SDS011;29470;53.550;9.926;2023-04-07T11:10:40;9.40;;;5.00;;
43823;SDS011;29470;53.550;9.926;2023-04-07T11:15:50;8.38;;;4.45;;
43823;SDS011;29470;53.550;9.926;2023-04-07T11:20:53;7.05;;;4.30;;
43823;SDS011;29470;53.550;9.926;2023-04-07T11:25:59;6.53;;;4.57;;
43823;SDS011;29470;53.550;9.926;2023-04-07T11:31:04;8.68;;;4.40;;
43823;SDS011;29470;53.550;9.926;2023-04-07T11:36:07;7.80;;;4.82;;
43823;SDS011;29470;53.550;9.926;2023-04-07T11:41:10;8.95;;;5.60;;
43823;SDS011;29470;53.550;9.926;2023-04-07T11:46:16;7.75;;;5.03;;
43823;SDS011;29470;53.550;9.926;2023-04-07T11:51:20;9.07;;;4.93;;
43823;SDS011;29470;53.550;9.926;2023-04-07T11:56:24;8.18;;;5.22;;
43823;SDS011;29470;53.550;9.926;2023-04-07T12:01:39;7.45;;;5.03;;
43823;SDS011;29470;53.550;9.926;2023-04-07T12:06:43;7.82;;;5.00;;
43823;SDS011;29470;53.550;9.926;2023-04-07T12:11:48;7.55;;;4.80;;
43823;SDS011;29470;53.550;9.926;2023-04-07T12:16:52;7.45;;;4.60;;
43823;SDS011;29470;53.550;9.926;2023-04-07T12:21:58;6.75;;;3.88;;
43823;SDS011;29470;53.550;9.926;2023-04-07T12:27:01;7.10;;;4.05;;
43823;SDS011;29470;53.550;9.926;2023-04-07T12:32:05;8.90;;;4.53;;
43823;SDS011;29470;53.550;9.926;2023-04-07T12:37:08;6.22;;;3.85;;
43823;SDS011;29470;53.550;9.926;2023-04-07T12:42:13;8.82;;;4.00;;
43823;SDS011;29470;53.550;9.926;2023-04-07T12:47:24;7.53;;;3.90;;
43823;SDS011;29470;53.550;9.926;2023-04-07T12:52:27;6.60;;;3.70;;
43823;SDS011;29470;53.550;9.926;2023-04-07T12:57:30;8.35;;;4.50;;
43823;SDS011;29470;53.550;9.926;2023-04-07T13:02:35;7.13;;;3.80;;
43823;SDS011;29470;53.550;9.926;2023-04-07T13:07:38;6.95;;;4.25;;
43823;SDS011;29470;53.550;9.926;2023-04-07T13:12:41;5.25;;;3.10;;
43823;SDS011;29470;53.550;9.926;2023-04-07T13:17:45;5.68;;;3.30;;
43823;SDS011;29470;53.550;9.926;2023-04-07T13:22:48;6.10;;;2.97;;
43823;SDS011;29470;53.550;9.926;2023-04-07T13:28:13;5.28;;;2.78;;
43823;SDS011;29470;53.550;9.926;2023-04-07T13:33:22;5.55;;;2.70;;
43823;SDS011;29470;53.550;9.926;2023-04-07T13:38:33;4.85;;;3.10;;
43823;SDS011;29470;53.550;9.926;2023-04-07T13:43:42;3.72;;;2.45;;
43823;SDS011;29470;53.550;9.926;2023-04-07T13:48:52;3.78;;;2.35;;
43823;SDS011;29470;53.550;9.926;2023-04-07T13:53:59;2.97;;;2.08;;
43823;SDS011;29470;53.550;9.926;2023-04-07T13:59:04;4.50;;;2.38;;
43823;SDS011;29470;53.550;9.926;2023-04-07T14:15:59;3.33;;;2.05;;
43823;SDS011;29470;53.550;9.926;2023-04-07T14:27:12;4.28;;;2.78;;
43823;SDS011;29470;53.550;9.926;2023-04-07T14:32:22;5.07;;;3.03;;
43823;SDS011;29470;53.550;9.926;2023-04-07T14:37:27;6.75;;;3.35;;
43823;SDS011;29470;53.550;9.926;2023-04-07T14:42:31;4.63;;;3.38;;
43823;SDS011;29470;53.550;9.926;2023-04-07T14:47:34;5.28;;;3.05;;
43823;SDS011;29470;53.550;9.926;2023-04-07T14:52:43;7.50;;;3.43;;
43823;SDS011;29470;53.550;9.926;2023-04-07T14:57:48;6.72;;;3.50;;
43823;SDS011;29470;53.550;9.926;2023-04-07T15:03:01;7.03;;;3.60;;
43823;SDS011;29470;53.550;9.926;2023-04-07T15:08:08;7.65;;;4.18;;
43823;SDS011;29470;53.550;9.926;2023-04-07T15:13:11;7.57;;;4.15;;
43823;SDS011;29470;53.550;9.926;2023-04-07T15:18:16;12.93;;;5.57;;
43823;SDS011;29470;53.550;9.926;2023-04-07T15:23:20;5.88;;;3.55;;
43823;SDS011;29470;53.550;9.926;2023-04-07T15:28:38;4.68;;;3.30;;
43823;SDS011;29470;53.550;9.926;2023-04-07T15:33:44;6.43;;;3.72;;
43823;SDS011;29470;53.550;9.926;2023-04-07T15:38:51;7.15;;;4.20;;
43823;SDS011;29470;53.550;9.926;2023-04-07T15:49:02;10.65;;;4.22;;
43823;SDS011;29470;53.550;9.926;2023-04-07T15:54:08;7.07;;;3.97;;
43823;SDS011;29470;53.550;9.926;2023-04-07T15:59:17;6.65;;;4.00;;
43823;SDS011;29470;53.550;9.926;2023-04-07T16:04:33;7.05;;;4.60;;
43823;SDS011;29470;53.550;9.926;2023-04-07T16:09:47;7.75;;;4.65;;
43823;SDS011;29470;53.550;9.926;2023-04-07T16:14:49;7.88;;;4.57;;
43823;SDS011;29470;53.550;9.926;2023-04-07T16:19:53;6.93;;;3.75;;
43823;SDS011;29470;53.550;9.926;2023-04-07T16:24:57;7.63;;;4.28;;
43823;SDS011;29470;53.550;9.926;2023-04-07T16:30:02;7.93;;;4.20;;
43823;SDS011;29470;53.550;9.926;2023-04-07T16:35:12;7.65;;;4.82;;
43823;SDS011;29470;53.550;9.926;2023-04-07T16:40:28;10.30;;;5.00;;
43823;SDS011;29470;53.550;9.926;2023-04-07T16:45:35;9.77;;;5.40;;
43823;SDS011;29470;53.550;9.926;2023-04-07T16:50:40;9.73;;;5.28;;
43823;SDS011;29470;53.550;9.926;2023-04-07T16:55:44;6.82;;;4.40;;
43823;SDS011;29470;53.550;9.926;2023-04-07T17:00:47;8.95;;;5.07;;
43823;SDS011;29470;53.550;9.926;2023-04-07T17:05:53;6.93;;;4.15;;
43823;SDS011;29470;53.550;9.926;2023-04-07T17:10:59;8.32;;;4.43;;
43823;SDS011;29470;53.550;9.926;2023-04-07T17:16:03;7.90;;;4.25;;
43823;SDS011;29470;53.550;9.926;2023-04-07T17:21:06;8.60;;;4.60;;
43823;SDS011;29470;53.550;9.926;2023-04-07T17:26:10;12.05;;;6.13;;
43823;SDS011;29470;53.550;9.926;2023-04-07T17:31:13;13.55;;;6.05;;
43823;SDS011;29470;53.550;9.926;2023-04-07T17:36:17;8.07;;;4.38;;
43823;SDS011;29470;53.550;9.926;2023-04-07T17:41:22;8.85;;;4.25;;
43823;SDS011;29470;53.550;9.926;2023-04-07T17:46:28;9.25;;;3.78;;
43823;SDS011;29470;53.550;9.926;2023-04-07T17:51:31;5.85;;;3.78;;
43823;SDS011;29470;53.550;9.926;2023-04-07T17:56:35;7.90;;;4.20;;
43823;SDS011;29470;53.550;9.926;2023-04-07T18:01:39;9.00;;;4.57;;
43823;SDS011;29470;53.550;9.926;2023-04-07T18:06:42;8.32;;;4.57;;
43823;SDS011;29470;53.550;9.926;2023-04-07T18:11:46;9.48;;;4.57;;
43823;SDS011;29470;53.550;9.926;2023-04-07T18:16:49;12.10;;;6.35;;
43823;SDS011;29470;53.550;9.926;2023-04-07T18:21:54;20.38;;;8.00;;
43823;SDS011;29470;53.550;9.926;2023-04-07T18:26:59;17.63;;;8.07;;
43823;SDS011;29470;53.550;9.926;2023-04-07T18:32:02;14.80;;;7.47;;
43823;SDS011;29470;53.550;9.926;2023-04-07T18:37:05;13.45;;;6.47;;
43823;SDS011;29470;53.550;9.926;2023-04-07T18:42:12;12.90;;;7.10;;
43823;SDS011;29470;53.550;9.926;2023-04-07T18:47:17;12.90;;;7.45;;
43823;SDS011;29470;53.550;9.926;2023-04-07T18:52:21;11.63;;;6.22;;
43823;SDS011;29470;53.550;9.926;2023-04-07T18:57:27;9.80;;;5.57;;
43823;SDS011;29470;53.550;9.926;2023-04-07T19:02:32;9.18;;;5.82;;
43823;SDS011;29470;53.550;9.926;2023-04-07T19:07:37;10.40;;;5.95;;
43823;SDS011;29470;53.550;9.926;2023-04-07T19:12:42;9.73;;;5.97;;
43823;SDS011;29470;53.550;9.926;2023-04-07T19:17:49;14.60;;;6.95;;
43823;SDS011;29470;53.550;9.926;2023-04-07T19:22:52;10.70;;;6.20;;
43823;SDS011;29470;53.550;9.926;2023-04-07T19:27:59;14.23;;;7.25;;
43823;SDS011;29470;53.550;9.926;2023-04-07T19:33:04;15.25;;;7.03;;
43823;SDS011;29470;53.550;9.926;2023-04-07T19:38:07;15.05;;;7.25;;
43823;SDS011;29470;53.550;9.926;2023-04-07T19:43:13;14.68;;;7.53;;
43823;SDS011;29470;53.550;9.926;2023-04-07T19:48:17;16.42;;;8.15;;
43823;SDS011;29470;53.550;9.926;2023-04-07T19:53:28;19.95;;;8.85;;
43823;SDS011;29470;53.550;9.926;2023-04-07T19:58:32;21.00;;;9.77;;
43823;SDS011;29470;53.550;9.926;2023-04-07T20:03:35;16.55;;;8.38;;
43823;SDS011;29470;53.550;9.926;2023-04-07T20:08:40;19.00;;;8.20;;
43823;SDS011;29470;53.550;9.926;2023-04-07T20:13:44;16.85;;;7.43;;
43823;SDS011;29470;53.550;9.926;2023-04-07T20:18:52;13.68;;;7.00;;
43823;SDS011;29470;53.550;9.926;2023-04-07T20:23:55;13.75;;;6.72;;
43823;SDS011;29470;53.550;9.926;2023-04-07T20:29:09;14.38;;;6.65;;
43823;SDS011;29470;53.550;9.926;2023-04-07T20:34:12;10.63;;;5.03;;
43823;SDS011;29470;53.550;9.926;2023-04-07T20:39:17;13.25;;;5.93;;
43823;SDS011;29470;53.550;9.926;2023-04-07T20:44:24;10.20;;;5.40;;
43823;SDS011;29470;53.550;9.926;2023-04-07T20:49:28;8.32;;;5.22;;
43823;SDS011;29470;53.550;9.926;2023-04-07T21:00:09;8.77;;;5.15;;
43823;SDS011;29470;53.550;9.926;2023-04-07T21:05:14;9.90;;;5.10;;
43823;SDS011;29470;53.550;9.926;2023-04-07T21:10:17;11.95;;;5.35;;
43823;SDS011;29470;53.550;9.926;2023-04-07T21:15:26;9.85;;;6.20;;
43823;SDS011;29470;53.550;9.926;2023-04-07T21:20:29;10.55;;;5.43;;
43823;SDS011;29470;53.550;9.926;2023-04-07T21:25:32;10.32;;;5.47;;
43823;SDS011;29470;53.550;9.926;2023-04-07T21:30:39;10.93;;;5.60;;
43823;SDS011;29470;53.550;9.926;2023-04-07T21:35:48;11.05;;;5.30;;
43823;SDS011;29470;53.550;9.926;2023-04-07T21:40:55;12.57;;;6.00;;
43823;SDS011;29470;53.550;9.926;2023-04-07T21:46:02;12.38;;;6.05;;
43823;SDS011;29470;53.550;9.926;2023-04-07T21:51:08;11.43;;;6.65;;
43823;SDS011;29470;53.550;9.926;2023-04-07T21:56:22;13.85;;;7.20;;
43823;SDS011;29470;53.550;9.926;2023-04-07T22:01:29;12.48;;;6.75;;
43823;SDS011;29470;53.550;9.926;2023-04-07T22:06:32;14.27;;;7.63;;
43823;SDS011;29470;53.550;9.926;2023-04-07T22:11:35;15.85;;;7.72;;
43823;SDS011;29470;53.550;9.926;2023-04-07T22:16:39;12.98;;;7.47;;
43823;SDS011;29470;53.550;9.926;2023-04-07T22:21:42;16.55;;;8.40;;
43823;SDS011;29470;53.550;9.926;2023-04-07T22:26:53;15.38;;;8.82;;
43823;SDS011;29470;53.550;9.926;2023-04-07T22:31:59;17.35;;;9.00;;
43823;SDS011;29470;53.550;9.926;2023-04-07T22:37:04;18.85;;;9.00;;
43823;SDS011;29470;53.550;9.926;2023-04-07T22:42:06;17.98;;;8.55;;
43823;SDS011;29470;53.550;9.926;2023-04-07T22:47:10;18.50;;;8.82;;
43823;SDS011;29470;53.550;9.926;2023-04-07T22:52:13;17.02;;;9.35;;
43823;SDS011;29470;53.550;9.926;2023-04-07T22:57:21;19.35;;;9.65;;
43823;SDS011;29470;53.550;9.926;2023-04-07T23:02:43;18.88;;;9.98;;
43823;SDS011;29470;53.550;9.926;2023-04-07T23:07:56;21.55;;;10.15;;
43823;SDS011;29470;53.550;9.926;2023-04-07T23:13:38;17.83;;;9.27;;
43823;SDS011;29470;53.550;9.926;2023-04-07T23:18:58;18.85;;;9.25;;
43823;SDS011;29470;53.550;9.926;2023-04-07T23:24:10;21.65;;;9.95;;
43823;SDS011;29470;53.550;9.926;2023-04-07T23:29:18;16.80;;;8.90;;
43823;SDS011;29470;53.550;9.926;2023-04-07T23:34:22;19.67;;;9.35;;
43823;SDS011;29470;53.550;9.926;2023-04-07T23:39:27;21.50;;;9.77;;
43823;SDS011;29470;53.550;9.926;2023-04-07T23:44:30;19.58;;;10.50;;
43823;SDS011;29470;53.550;9.926;2023-04-07T23:49:34;24.48;;;10.35;;
43823;SDS011;29470;53.550;9.926;2023-04-07T23:54:37;17.80;;;9.52;;
43823;SDS011;29470;53.550;9.926;2023-04-07T23:59:41;22.48;;;11.05;;
